sensor_id;sensor_type;location;lat;lon;timestamp;P1;durP1;ratioP1;P2;durP2;ratioP2
8411;SDS011;4243;49.296;11.348;2022-10-31T00:01:29;121.77;;;3.63;;
8411;SDS011;4243;49.296;11.348;2022-10-31T00:04:03;121.60;;;3.20;;
8411;SDS011;4243;49.296;11.348;2022-10-31T00:06:32;122.27;;;3.27;;
8411;SDS011;4243;49.296;11.348;2022-10-31T00:09:00;121.73;;;3.20;;
8411;SDS011;4243;49.296;11.348;2022-10-31T00:11:30;121.90;;;3.23;;
8411;SDS011;4243;49.296;11.348;2022-10-31T00:13:57;120.93;;;3.47;;
8411;SDS011;4243;49.296;11.348;2022-10-31T00:16:25;120.77;;;3.33;;
8411;SDS011;4243;49.296;11.348;2022-10-31T00:18:56;120.80;;;3.20;;
8411;SDS011;4243;49.296;11.348;2022-10-31T00:21:29;122.20;;;3.20;;
8411;SDS011;4243;49.296;11.348;2022-10-31T00:23:58;121.20;;;3.10;;
8411;SDS011;4243;49.296;11.348;2022-10-31T00:26:27;119.90;;;3.17;;
8411;SDS011;4243;49.296;11.348;2022-10-31T00:28:57;120.67;;;3.20;;
8411;SDS011;4243;49.296;11.348;2022-10-31T00:31:26;121.97;;;3.17;;
8411;SDS011;4243;49.296;11.348;2022-10-31T00:33:54;121.37;;;3.27;;
8411;SDS011;4243;49.296;11.348;2022-10-31T00:36:21;121.53;;;3.50;;
8411;SDS011;4243;49.296;11.348;2022-10-31T00:38:49;121.07;;;3.27;;
8411;SDS011;4243;49.296;11.348;2022-10-31T00:41:16;121.43;;;3.10;;
8411;SDS011;4243;49.296;11.348;2022-10-31T00:43:44;122.20;;;3.30;;
8411;SDS011;4243;49.296;11.348;2022-10-31T00:46:12;122.10;;;3.27;;
8411;SDS011;4243;49.296;11.348;2022-10-31T00:48:40;120.90;;;3.33;;
8411;SDS011;4243;49.296;11.348;2022-10-31T00:51:08;122.30;;;3.50;;
8411;SDS011;4243;49.296;11.348;2022-10-31T00:53:35;121.87;;;3.30;;
8411;SDS011;4243;49.296;11.348;2022-10-31T00:56:03;119.17;;;3.20;;
8411;SDS011;4243;49.296;11.348;2022-10-31T00:58:31;121.40;;;3.30;;
8411;SDS011;4243;49.296;11.348;2022-10-31T01:00:58;121.17;;;3.27;;
8411;SDS011;4243;49.296;11.348;2022-10-31T01:03:26;121.67;;;3.33;;
8411;SDS011;4243;49.296;11.348;2022-10-31T01:08:33;121.80;;;3.10;;
8411;SDS011;4243;49.296;11.348;2022-10-31T01:11:12;121.70;;;3.27;;
8411;SDS011;4243;49.296;11.348;2022-10-31T01:13:44;121.47;;;3.40;;
8411;SDS011;4243;49.296;11.348;2022-10-31T01:16:13;121.47;;;3.10;;
8411;SDS011;4243;49.296;11.348;2022-10-31T01:18:44;120.70;;;3.20;;
8411;SDS011;4243;49.296;11.348;2022-10-31T01:21:22;120.77;;;3.30;;
8411;SDS011;4243;49.296;11.348;2022-10-31T01:23:56;121.60;;;3.10;;
8411;SDS011;4243;49.296;11.348;2022-10-31T01:26:25;122.23;;;3.10;;
8411;SDS011;4243;49.296;11.348;2022-10-31T01:28:57;122.10;;;3.23;;
8411;SDS011;4243;49.296;11.348;2022-10-31T01:31:30;121.83;;;3.17;;
8411;SDS011;4243;49.296;11.348;2022-10-31T01:34:05;121.80;;;3.17;;
8411;SDS011;4243;49.296;11.348;2022-10-31T01:36:35;120.97;;;3.17;;
8411;SDS011;4243;49.296;11.348;2022-10-31T01:39:05;121.17;;;3.03;;
8411;SDS011;4243;49.296;11.348;2022-10-31T01:41:39;121.63;;;3.20;;
8411;SDS011;4243;49.296;11.348;2022-10-31T01:49:18;121.97;;;3.10;;
8411;SDS011;4243;49.296;11.348;2022-10-31T01:52:04;121.97;;;3.50;;
8411;SDS011;4243;49.296;11.348;2022-10-31T01:54:45;121.40;;;3.10;;
8411;SDS011;4243;49.296;11.348;2022-10-31T01:57:41;121.60;;;3.20;;
8411;SDS011;4243;49.296;11.348;2022-10-31T02:00:16;121.80;;;3.20;;
8411;SDS011;4243;49.296;11.348;2022-10-31T02:02:46;119.97;;;3.17;;
8411;SDS011;4243;49.296;11.348;2022-10-31T02:05:17;122.00;;;3.10;;
8411;SDS011;4243;49.296;11.348;2022-10-31T02:07:57;121.63;;;3.10;;
8411;SDS011;4243;49.296;11.348;2022-10-31T02:10:43;121.57;;;3.17;;
8411;SDS011;4243;49.296;11.348;2022-10-31T02:13:10;121.80;;;3.30;;
8411;SDS011;4243;49.296;11.348;2022-10-31T02:15:44;122.53;;;3.40;;
8411;SDS011;4243;49.296;11.348;2022-10-31T02:18:17;121.80;;;3.20;;
8411;SDS011;4243;49.296;11.348;2022-10-31T02:20:59;122.00;;;3.27;;
8411;SDS011;4243;49.296;11.348;2022-10-31T02:33:53;120.60;;;3.10;;
8411;SDS011;4243;49.296;11.348;2022-10-31T02:36:51;122.00;;;3.30;;
8411;SDS011;4243;49.296;11.348;2022-10-31T02:39:43;122.07;;;3.10;;
8411;SDS011;4243;49.296;11.348;2022-10-31T02:43:02;121.57;;;3.40;;
8411;SDS011;4243;49.296;11.348;2022-10-31T02:46:03;121.10;;;3.20;;
8411;SDS011;4243;49.296;11.348;2022-10-31T02:49:23;121.13;;;3.20;;
8411;SDS011;4243;49.296;11.348;2022-10-31T02:52:31;121.43;;;3.23;;
8411;SDS011;4243;49.296;11.348;2022-10-31T02:58:00;121.60;;;3.10;;
8411;SDS011;4243;49.296;11.348;2022-10-31T03:07:10;120.57;;;3.20;;
8411;SDS011;4243;49.296;11.348;2022-10-31T03:16:20;120.27;;;3.13;;
8411;SDS011;4243;49.296;11.348;2022-10-31T03:19:37;121.90;;;3.20;;
8411;SDS011;4243;49.296;11.348;2022-10-31T03:22:14;121.97;;;3.17;;
8411;SDS011;4243;49.296;11.348;2022-10-31T03:24:47;121.30;;;3.10;;
8411;SDS011;4243;49.296;11.348;2022-10-31T03:27:20;121.50;;;3.30;;
8411;SDS011;4243;49.296;11.348;2022-10-31T03:29:54;120.00;;;3.03;;
8411;SDS011;4243;49.296;11.348;2022-10-31T03:32:27;120.70;;;3.20;;
8411;SDS011;4243;49.296;11.348;2022-10-31T03:35:06;121.87;;;3.23;;
8411;SDS011;4243;49.296;11.348;2022-10-31T03:37:39;121.30;;;3.27;;
8411;SDS011;4243;49.296;11.348;2022-10-31T03:40:12;119.87;;;3.23;;
8411;SDS011;4243;49.296;11.348;2022-10-31T03:42:46;120.73;;;3.30;;
8411;SDS011;4243;49.296;11.348;2022-10-31T03:45:26;120.60;;;3.33;;
8411;SDS011;4243;49.296;11.348;2022-10-31T03:48:00;120.63;;;3.23;;
8411;SDS011;4243;49.296;11.348;2022-10-31T03:50:30;121.70;;;3.40;;
8411;SDS011;4243;49.296;11.348;2022-10-31T03:53:56;121.30;;;3.03;;
8411;SDS011;4243;49.296;11.348;2022-10-31T04:00:08;121.40;;;3.10;;
8411;SDS011;4243;49.296;11.348;2022-10-31T04:02:50;119.30;;;3.13;;
8411;SDS011;4243;49.296;11.348;2022-10-31T04:05:35;121.63;;;3.13;;
8411;SDS011;4243;49.296;11.348;2022-10-31T04:08:06;119.70;;;3.20;;
8411;SDS011;4243;49.296;11.348;2022-10-31T04:10:44;119.93;;;3.20;;
8411;SDS011;4243;49.296;11.348;2022-10-31T04:13:19;121.50;;;3.20;;
8411;SDS011;4243;49.296;11.348;2022-10-31T04:16:03;121.77;;;3.20;;
8411;SDS011;4243;49.296;11.348;2022-10-31T04:18:32;121.37;;;3.20;;
8411;SDS011;4243;49.296;11.348;2022-10-31T04:21:03;121.70;;;3.07;;
8411;SDS011;4243;49.296;11.348;2022-10-31T04:23:34;121.30;;;3.07;;
8411;SDS011;4243;49.296;11.348;2022-10-31T04:26:13;120.77;;;3.27;;
8411;SDS011;4243;49.296;11.348;2022-10-31T04:28:42;121.30;;;3.20;;
8411;SDS011;4243;49.296;11.348;2022-10-31T04:31:11;120.70;;;3.37;;
8411;SDS011;4243;49.296;11.348;2022-10-31T04:33:39;121.57;;;3.23;;
8411;SDS011;4243;49.296;11.348;2022-10-31T04:36:06;121.60;;;3.60;;
8411;SDS011;4243;49.296;11.348;2022-10-31T04:38:34;120.73;;;3.37;;
8411;SDS011;4243;49.296;11.348;2022-10-31T04:41:08;119.97;;;3.20;;
8411;SDS011;4243;49.296;11.348;2022-10-31T04:43:48;121.10;;;3.40;;
8411;SDS011;4243;49.296;11.348;2022-10-31T04:46:16;121.47;;;3.43;;
8411;SDS011;4243;49.296;11.348;2022-10-31T04:48:43;121.67;;;3.17;;
8411;SDS011;4243;49.296;11.348;2022-10-31T04:51:10;121.20;;;3.23;;
8411;SDS011;4243;49.296;11.348;2022-10-31T04:53:38;121.80;;;3.20;;
8411;SDS011;4243;49.296;11.348;2022-10-31T04:56:28;119.30;;;3.20;;
8411;SDS011;4243;49.296;11.348;2022-10-31T04:59:01;121.00;;;3.20;;
8411;SDS011;4243;49.296;11.348;2022-10-31T05:01:40;120.90;;;3.20;;
8411;SDS011;4243;49.296;11.348;2022-10-31T05:04:10;121.67;;;3.13;;
8411;SDS011;4243;49.296;11.348;2022-10-31T05:06:37;121.27;;;3.20;;
8411;SDS011;4243;49.296;11.348;2022-10-31T05:09:04;121.50;;;3.33;;
8411;SDS011;4243;49.296;11.348;2022-10-31T05:11:31;121.70;;;3.07;;
8411;SDS011;4243;49.296;11.348;2022-10-31T05:14:08;121.47;;;3.23;;
8411;SDS011;4243;49.296;11.348;2022-10-31T05:17:01;121.77;;;3.10;;
8411;SDS011;4243;49.296;11.348;2022-10-31T05:19:57;121.23;;;3.03;;
8411;SDS011;4243;49.296;11.348;2022-10-31T05:22:56;121.30;;;3.10;;
8411;SDS011;4243;49.296;11.348;2022-10-31T05:25:26;121.50;;;3.13;;
8411;SDS011;4243;49.296;11.348;2022-10-31T05:27:55;121.40;;;3.10;;
8411;SDS011;4243;49.296;11.348;2022-10-31T05:30:25;121.00;;;3.10;;
8411;SDS011;4243;49.296;11.348;2022-10-31T05:32:57;121.77;;;3.20;;
8411;SDS011;4243;49.296;11.348;2022-10-31T05:35:44;121.43;;;3.10;;
8411;SDS011;4243;49.296;11.348;2022-10-31T05:38:34;122.00;;;3.30;;
8411;SDS011;4243;49.296;11.348;2022-10-31T05:41:10;120.57;;;3.10;;
8411;SDS011;4243;49.296;11.348;2022-10-31T05:43:42;120.80;;;3.10;;
8411;SDS011;4243;49.296;11.348;2022-10-31T05:46:09;120.17;;;3.20;;
8411;SDS011;4243;49.296;11.348;2022-10-31T05:49:05;121.03;;;3.20;;
8411;SDS011;4243;49.296;11.348;2022-10-31T05:52:07;121.87;;;3.20;;
8411;SDS011;4243;49.296;11.348;2022-10-31T05:54:43;121.43;;;3.20;;
8411;SDS011;4243;49.296;11.348;2022-10-31T05:57:10;120.07;;;3.10;;
8411;SDS011;4243;49.296;11.348;2022-10-31T05:59:37;120.07;;;3.20;;
8411;SDS011;4243;49.296;11.348;2022-10-31T06:02:04;119.77;;;3.13;;
8411;SDS011;4243;49.296;11.348;2022-10-31T06:04:49;121.50;;;3.10;;
8411;SDS011;4243;49.296;11.348;2022-10-31T06:07:17;120.87;;;3.23;;
8411;SDS011;4243;49.296;11.348;2022-10-31T06:09:45;121.13;;;3.30;;
8411;SDS011;4243;49.296;11.348;2022-10-31T06:12:12;120.90;;;3.00;;
8411;SDS011;4243;49.296;11.348;2022-10-31T06:15:05;120.70;;;3.00;;
8411;SDS011;4243;49.296;11.348;2022-10-31T06:17:35;121.67;;;3.10;;
8411;SDS011;4243;49.296;11.348;2022-10-31T06:20:22;120.60;;;3.03;;
8411;SDS011;4243;49.296;11.348;2022-10-31T06:22:57;120.60;;;3.03;;
8411;SDS011;4243;49.296;11.348;2022-10-31T06:25:24;120.40;;;3.07;;
8411;SDS011;4243;49.296;11.348;2022-10-31T06:27:52;121.30;;;3.10;;
8411;SDS011;4243;49.296;11.348;2022-10-31T06:30:24;121.27;;;3.00;;
8411;SDS011;4243;49.296;11.348;2022-10-31T06:32:54;120.97;;;3.10;;
8411;SDS011;4243;49.296;11.348;2022-10-31T06:35:29;121.03;;;3.10;;
8411;SDS011;4243;49.296;11.348;2022-10-31T06:37:58;118.10;;;2.90;;
8411;SDS011;4243;49.296;11.348;2022-10-31T06:40:37;120.93;;;3.13;;
8411;SDS011;4243;49.296;11.348;2022-10-31T06:43:18;120.17;;;3.20;;
8411;SDS011;4243;49.296;11.348;2022-10-31T06:45:55;120.20;;;2.97;;
8411;SDS011;4243;49.296;11.348;2022-10-31T06:48:27;120.37;;;3.10;;
8411;SDS011;4243;49.296;11.348;2022-10-31T06:51:29;120.33;;;3.00;;
8411;SDS011;4243;49.296;11.348;2022-10-31T06:53:58;120.97;;;3.03;;
8411;SDS011;4243;49.296;11.348;2022-10-31T06:56:25;120.17;;;3.20;;
8411;SDS011;4243;49.296;11.348;2022-10-31T06:58:55;120.27;;;3.10;;
8411;SDS011;4243;49.296;11.348;2022-10-31T07:01:48;118.57;;;2.87;;
8411;SDS011;4243;49.296;11.348;2022-10-31T07:04:18;120.13;;;3.20;;
8411;SDS011;4243;49.296;11.348;2022-10-31T07:06:46;120.17;;;2.90;;
8411;SDS011;4243;49.296;11.348;2022-10-31T07:09:17;119.87;;;3.00;;
8411;SDS011;4243;49.296;11.348;2022-10-31T07:11:46;120.13;;;3.10;;
8411;SDS011;4243;49.296;11.348;2022-10-31T07:14:14;119.30;;;3.10;;
8411;SDS011;4243;49.296;11.348;2022-10-31T07:16:41;120.10;;;3.00;;
8411;SDS011;4243;49.296;11.348;2022-10-31T07:19:11;119.90;;;3.10;;
8411;SDS011;4243;49.296;11.348;2022-10-31T07:21:39;118.10;;;3.00;;
8411;SDS011;4243;49.296;11.348;2022-10-31T07:24:06;117.97;;;3.00;;
8411;SDS011;4243;49.296;11.348;2022-10-31T07:26:42;119.20;;;3.20;;
8411;SDS011;4243;49.296;11.348;2022-10-31T07:29:13;120.10;;;3.00;;
8411;SDS011;4243;49.296;11.348;2022-10-31T07:31:41;119.10;;;3.10;;
8411;SDS011;4243;49.296;11.348;2022-10-31T07:34:16;119.50;;;3.03;;
8411;SDS011;4243;49.296;11.348;2022-10-31T07:37:02;119.20;;;2.93;;
8411;SDS011;4243;49.296;11.348;2022-10-31T07:39:47;118.20;;;2.90;;
8411;SDS011;4243;49.296;11.348;2022-10-31T07:42:15;119.27;;;3.07;;
8411;SDS011;4243;49.296;11.348;2022-10-31T07:44:45;118.67;;;3.20;;
8411;SDS011;4243;49.296;11.348;2022-10-31T07:47:38;118.73;;;3.07;;
8411;SDS011;4243;49.296;11.348;2022-10-31T07:50:26;118.90;;;3.17;;
8411;SDS011;4243;49.296;11.348;2022-10-31T07:53:36;118.83;;;3.10;;
8411;SDS011;4243;49.296;11.348;2022-10-31T07:56:24;118.80;;;3.20;;
8411;SDS011;4243;49.296;11.348;2022-10-31T07:58:52;119.53;;;3.27;;
8411;SDS011;4243;49.296;11.348;2022-10-31T08:01:18;118.53;;;3.07;;
8411;SDS011;4243;49.296;11.348;2022-10-31T08:04:02;118.90;;;3.20;;
8411;SDS011;4243;49.296;11.348;2022-10-31T08:06:51;119.63;;;3.23;;
8411;SDS011;4243;49.296;11.348;2022-10-31T08:09:28;119.20;;;3.27;;
8411;SDS011;4243;49.296;11.348;2022-10-31T08:12:00;118.87;;;3.60;;
8411;SDS011;4243;49.296;11.348;2022-10-31T08:14:29;119.17;;;3.23;;
8411;SDS011;4243;49.296;11.348;2022-10-31T08:16:56;119.00;;;3.80;;
8411;SDS011;4243;49.296;11.348;2022-10-31T08:19:31;119.10;;;3.47;;
8411;SDS011;4243;49.296;11.348;2022-10-31T08:21:59;118.50;;;3.30;;
8411;SDS011;4243;49.296;11.348;2022-10-31T08:24:27;118.57;;;3.57;;
8411;SDS011;4243;49.296;11.348;2022-10-31T08:26:56;118.17;;;3.37;;
8411;SDS011;4243;49.296;11.348;2022-10-31T08:29:24;118.93;;;3.97;;
8411;SDS011;4243;49.296;11.348;2022-10-31T08:31:51;118.87;;;4.00;;
8411;SDS011;4243;49.296;11.348;2022-10-31T08:34:36;119.40;;;4.20;;
8411;SDS011;4243;49.296;11.348;2022-10-31T08:37:22;119.10;;;4.23;;
8411;SDS011;4243;49.296;11.348;2022-10-31T08:39:52;119.20;;;4.53;;
8411;SDS011;4243;49.296;11.348;2022-10-31T08:42:20;118.97;;;5.10;;
8411;SDS011;4243;49.296;11.348;2022-10-31T08:44:47;119.30;;;5.53;;
8411;SDS011;4243;49.296;11.348;2022-10-31T08:47:18;119.97;;;5.90;;
8411;SDS011;4243;49.296;11.348;2022-10-31T08:49:47;119.40;;;5.83;;
8411;SDS011;4243;49.296;11.348;2022-10-31T08:52:14;119.77;;;6.20;;
8411;SDS011;4243;49.296;11.348;2022-10-31T08:54:43;120.07;;;7.13;;
8411;SDS011;4243;49.296;11.348;2022-10-31T08:57:45;119.97;;;6.47;;
8411;SDS011;4243;49.296;11.348;2022-10-31T09:03:38;118.57;;;4.07;;
8411;SDS011;4243;49.296;11.348;2022-10-31T09:06:06;118.67;;;3.77;;
8411;SDS011;4243;49.296;11.348;2022-10-31T09:08:35;118.70;;;3.27;;
8411;SDS011;4243;49.296;11.348;2022-10-31T09:11:03;118.00;;;3.27;;
8411;SDS011;4243;49.296;11.348;2022-10-31T09:13:51;118.37;;;3.00;;
8411;SDS011;4243;49.296;11.348;2022-10-31T09:16:19;117.60;;;3.00;;
8411;SDS011;4243;49.296;11.348;2022-10-31T09:18:46;118.33;;;2.90;;
8411;SDS011;4243;49.296;11.348;2022-10-31T09:21:15;118.63;;;3.47;;
8411;SDS011;4243;49.296;11.348;2022-10-31T09:23:42;118.30;;;3.50;;
8411;SDS011;4243;49.296;11.348;2022-10-31T09:26:09;118.47;;;3.40;;
8411;SDS011;4243;49.296;11.348;2022-10-31T09:28:40;118.57;;;3.10;;
8411;SDS011;4243;49.296;11.348;2022-10-31T09:31:10;118.03;;;2.80;;
8411;SDS011;4243;49.296;11.348;2022-10-31T09:33:55;117.87;;;2.40;;
8411;SDS011;4243;49.296;11.348;2022-10-31T09:36:35;117.97;;;2.53;;
8411;SDS011;4243;49.296;11.348;2022-10-31T09:39:10;117.90;;;2.40;;
8411;SDS011;4243;49.296;11.348;2022-10-31T09:44:52;117.17;;;2.70;;
8411;SDS011;4243;49.296;11.348;2022-10-31T09:47:59;115.57;;;2.40;;
8411;SDS011;4243;49.296;11.348;2022-10-31T09:50:58;113.83;;;1.90;;
8411;SDS011;4243;49.296;11.348;2022-10-31T09:53:59;113.40;;;1.97;;
8411;SDS011;4243;49.296;11.348;2022-10-31T09:56:43;113.77;;;2.10;;
8411;SDS011;4243;49.296;11.348;2022-10-31T09:59:12;112.97;;;2.50;;
8411;SDS011;4243;49.296;11.348;2022-10-31T10:02:03;112.77;;;2.53;;
8411;SDS011;4243;49.296;11.348;2022-10-31T10:05:26;110.80;;;2.53;;
8411;SDS011;4243;49.296;11.348;2022-10-31T10:08:55;110.70;;;2.33;;
8411;SDS011;4243;49.296;11.348;2022-10-31T10:11:47;110.10;;;2.20;;
8411;SDS011;4243;49.296;11.348;2022-10-31T10:14:54;108.77;;;1.20;;
8411;SDS011;4243;49.296;11.348;2022-10-31T10:30:42;107.77;;;2.13;;
8411;SDS011;4243;49.296;11.348;2022-10-31T10:33:21;107.50;;;1.40;;
8411;SDS011;4243;49.296;11.348;2022-10-31T10:36:04;107.97;;;1.80;;
8411;SDS011;4243;49.296;11.348;2022-10-31T10:38:51;107.87;;;1.70;;
8411;SDS011;4243;49.296;11.348;2022-10-31T10:41:28;108.30;;;1.73;;
8411;SDS011;4243;49.296;11.348;2022-10-31T10:44:00;109.07;;;1.70;;
8411;SDS011;4243;49.296;11.348;2022-10-31T10:56:11;108.63;;;1.50;;
8411;SDS011;4243;49.296;11.348;2022-10-31T10:58:57;108.43;;;1.43;;
8411;SDS011;4243;49.296;11.348;2022-10-31T11:01:24;108.07;;;1.50;;
8411;SDS011;4243;49.296;11.348;2022-10-31T11:03:51;107.47;;;1.30;;
8411;SDS011;4243;49.296;11.348;2022-10-31T11:06:19;107.77;;;1.50;;
8411;SDS011;4243;49.296;11.348;2022-10-31T11:08:52;107.57;;;1.43;;
8411;SDS011;4243;49.296;11.348;2022-10-31T11:11:26;107.63;;;1.50;;
8411;SDS011;4243;49.296;11.348;2022-10-31T11:14:13;107.87;;;1.30;;
8411;SDS011;4243;49.296;11.348;2022-10-31T11:16:48;108.07;;;1.33;;
8411;SDS011;4243;49.296;11.348;2022-10-31T11:19:25;108.53;;;1.43;;
8411;SDS011;4243;49.296;11.348;2022-10-31T11:21:53;108.37;;;1.40;;
8411;SDS011;4243;49.296;11.348;2022-10-31T11:24:38;108.33;;;1.40;;
8411;SDS011;4243;49.296;11.348;2022-10-31T11:27:20;108.83;;;1.50;;
8411;SDS011;4243;49.296;11.348;2022-10-31T11:29:51;108.30;;;1.40;;
8411;SDS011;4243;49.296;11.348;2022-10-31T11:32:26;108.37;;;1.50;;
8411;SDS011;4243;49.296;11.348;2022-10-31T11:35:00;109.20;;;1.50;;
8411;SDS011;4243;49.296;11.348;2022-10-31T11:37:39;109.27;;;1.40;;
8411;SDS011;4243;49.296;11.348;2022-10-31T11:40:21;109.97;;;1.30;;
8411;SDS011;4243;49.296;11.348;2022-10-31T11:42:52;109.60;;;1.23;;
8411;SDS011;4243;49.296;11.348;2022-10-31T11:45:31;110.57;;;1.50;;
8411;SDS011;4243;49.296;11.348;2022-10-31T11:48:01;111.17;;;1.80;;
8411;SDS011;4243;49.296;11.348;2022-10-31T11:50:50;111.50;;;1.70;;
8411;SDS011;4243;49.296;11.348;2022-10-31T11:53:29;111.73;;;1.73;;
8411;SDS011;4243;49.296;11.348;2022-10-31T11:56:10;111.97;;;1.70;;
8411;SDS011;4243;49.296;11.348;2022-10-31T11:58:41;112.13;;;2.00;;
8411;SDS011;4243;49.296;11.348;2022-10-31T12:01:21;112.33;;;2.73;;
8411;SDS011;4243;49.296;11.348;2022-10-31T12:04:00;112.60;;;2.70;;
8411;SDS011;4243;49.296;11.348;2022-10-31T12:06:42;112.17;;;2.73;;
8411;SDS011;4243;49.296;11.348;2022-10-31T12:09:22;112.50;;;2.40;;
8411;SDS011;4243;49.296;11.348;2022-10-31T12:12:03;111.97;;;2.40;;
8411;SDS011;4243;49.296;11.348;2022-10-31T12:15:33;112.00;;;2.20;;
8411;SDS011;4243;49.296;11.348;2022-10-31T12:24:45;111.57;;;1.77;;
8411;SDS011;4243;49.296;11.348;2022-10-31T12:27:51;111.27;;;1.57;;
8411;SDS011;4243;49.296;11.348;2022-10-31T12:33:52;112.07;;;1.90;;
8411;SDS011;4243;49.296;11.348;2022-10-31T12:37:06;112.03;;;1.60;;
8411;SDS011;4243;49.296;11.348;2022-10-31T12:40:20;112.23;;;1.73;;
8411;SDS011;4243;49.296;11.348;2022-10-31T12:47:26;112.93;;;1.50;;
8411;SDS011;4243;49.296;11.348;2022-10-31T12:56:47;113.20;;;1.90;;
8411;SDS011;4243;49.296;11.348;2022-10-31T13:00:03;113.87;;;2.00;;
8411;SDS011;4243;49.296;11.348;2022-10-31T13:02:58;113.67;;;1.97;;
8411;SDS011;4243;49.296;11.348;2022-10-31T13:05:46;112.93;;;1.90;;
8411;SDS011;4243;49.296;11.348;2022-10-31T13:11:28;115.10;;;1.80;;
8411;SDS011;4243;49.296;11.348;2022-10-31T13:14:07;114.90;;;1.60;;
8411;SDS011;4243;49.296;11.348;2022-10-31T13:16:56;115.97;;;1.57;;
8411;SDS011;4243;49.296;11.348;2022-10-31T13:19:27;116.10;;;1.90;;
8411;SDS011;4243;49.296;11.348;2022-10-31T13:22:20;114.50;;;2.00;;
8411;SDS011;4243;49.296;11.348;2022-10-31T13:24:57;117.17;;;2.10;;
8411;SDS011;4243;49.296;11.348;2022-10-31T13:30:24;114.20;;;1.93;;
8411;SDS011;4243;49.296;11.348;2022-10-31T13:45:21;117.60;;;2.17;;
8411;SDS011;4243;49.296;11.348;2022-10-31T13:47:59;116.50;;;2.00;;
8411;SDS011;4243;49.296;11.348;2022-10-31T13:50:56;116.87;;;2.13;;
8411;SDS011;4243;49.296;11.348;2022-10-31T13:53:45;117.67;;;2.10;;
8411;SDS011;4243;49.296;11.348;2022-10-31T13:57:06;115.10;;;2.13;;
8411;SDS011;4243;49.296;11.348;2022-10-31T14:00:41;116.77;;;2.00;;
8411;SDS011;4243;49.296;11.348;2022-10-31T14:03:00;115.87;;;1.97;;
8411;SDS011;4243;49.296;11.348;2022-10-31T14:05:32;114.27;;;1.60;;
8411;SDS011;4243;49.296;11.348;2022-10-31T14:08:02;113.97;;;1.60;;
8411;SDS011;4243;49.296;11.348;2022-10-31T14:10:36;114.37;;;1.70;;
8411;SDS011;4243;49.296;11.348;2022-10-31T14:15:52;112.87;;;2.13;;
8411;SDS011;4243;49.296;11.348;2022-10-31T14:18:37;114.13;;;2.10;;
8411;SDS011;4243;49.296;11.348;2022-10-31T14:21:26;114.30;;;2.00;;
8411;SDS011;4243;49.296;11.348;2022-10-31T14:23:57;114.43;;;2.00;;
8411;SDS011;4243;49.296;11.348;2022-10-31T14:28:56;115.60;;;2.03;;
8411;SDS011;4243;49.296;11.348;2022-10-31T14:31:52;114.67;;;2.00;;
8411;SDS011;4243;49.296;11.348;2022-10-31T14:37:47;116.27;;;1.83;;
8411;SDS011;4243;49.296;11.348;2022-10-31T14:41:08;117.40;;;2.07;;
8411;SDS011;4243;49.296;11.348;2022-10-31T14:44:36;117.70;;;2.17;;
8411;SDS011;4243;49.296;11.348;2022-10-31T14:47:27;117.70;;;2.30;;
8411;SDS011;4243;49.296;11.348;2022-10-31T14:53:22;117.67;;;2.17;;
8411;SDS011;4243;49.296;11.348;2022-10-31T14:55:55;118.27;;;2.20;;
8411;SDS011;4243;49.296;11.348;2022-10-31T14:58:35;118.10;;;2.23;;
8411;SDS011;4243;49.296;11.348;2022-10-31T15:01:26;118.10;;;2.27;;
8411;SDS011;4243;49.296;11.348;2022-10-31T15:04:04;118.23;;;2.23;;
8411;SDS011;4243;49.296;11.348;2022-10-31T15:06:50;118.70;;;2.33;;
8411;SDS011;4243;49.296;11.348;2022-10-31T15:09:34;118.70;;;2.30;;
8411;SDS011;4243;49.296;11.348;2022-10-31T15:12:21;118.20;;;2.20;;
8411;SDS011;4243;49.296;11.348;2022-10-31T15:14:56;118.53;;;2.20;;
8411;SDS011;4243;49.296;11.348;2022-10-31T15:17:24;118.30;;;2.30;;
8411;SDS011;4243;49.296;11.348;2022-10-31T15:19:52;118.70;;;2.37;;
8411;SDS011;4243;49.296;11.348;2022-10-31T15:22:22;118.70;;;2.40;;
8411;SDS011;4243;49.296;11.348;2022-10-31T15:24:57;118.90;;;2.47;;
8411;SDS011;4243;49.296;11.348;2022-10-31T15:27:24;119.30;;;2.50;;
8411;SDS011;4243;49.296;11.348;2022-10-31T15:29:54;119.30;;;2.50;;
8411;SDS011;4243;49.296;11.348;2022-10-31T15:32:23;119.00;;;2.40;;
8411;SDS011;4243;49.296;11.348;2022-10-31T15:34:54;119.20;;;2.33;;
8411;SDS011;4243;49.296;11.348;2022-10-31T15:37:23;119.60;;;2.40;;
8411;SDS011;4243;49.296;11.348;2022-10-31T15:39:52;118.47;;;2.40;;
8411;SDS011;4243;49.296;11.348;2022-10-31T15:45:04;118.80;;;2.53;;
8411;SDS011;4243;49.296;11.348;2022-10-31T15:48:00;119.60;;;2.70;;
8411;SDS011;4243;49.296;11.348;2022-10-31T15:50:46;119.67;;;2.80;;
8411;SDS011;4243;49.296;11.348;2022-10-31T15:53:34;119.93;;;2.70;;
8411;SDS011;4243;49.296;11.348;2022-10-31T15:56:26;119.83;;;2.70;;
8411;SDS011;4243;49.296;11.348;2022-10-31T15:58:57;119.60;;;2.70;;
8411;SDS011;4243;49.296;11.348;2022-10-31T16:01:33;119.63;;;2.70;;
8411;SDS011;4243;49.296;11.348;2022-10-31T16:04:05;119.50;;;2.70;;
8411;SDS011;4243;49.296;11.348;2022-10-31T16:06:38;120.00;;;2.80;;
8411;SDS011;4243;49.296;11.348;2022-10-31T16:09:21;119.80;;;2.70;;
8411;SDS011;4243;49.296;11.348;2022-10-31T16:11:50;120.07;;;2.70;;
8411;SDS011;4243;49.296;11.348;2022-10-31T16:14:25;119.90;;;2.60;;
8411;SDS011;4243;49.296;11.348;2022-10-31T16:16:58;119.60;;;2.60;;
8411;SDS011;4243;49.296;11.348;2022-10-31T16:19:37;119.77;;;2.60;;
8411;SDS011;4243;49.296;11.348;2022-10-31T16:22:35;119.30;;;2.50;;
8411;SDS011;4243;49.296;11.348;2022-10-31T16:25:12;119.90;;;2.60;;
8411;SDS011;4243;49.296;11.348;2022-10-31T16:27:53;119.70;;;2.67;;
8411;SDS011;4243;49.296;11.348;2022-10-31T16:30:38;119.20;;;2.70;;
8411;SDS011;4243;49.296;11.348;2022-10-31T16:33:30;120.40;;;2.63;;
8411;SDS011;4243;49.296;11.348;2022-10-31T16:36:44;119.30;;;2.60;;
8411;SDS011;4243;49.296;11.348;2022-10-31T16:39:02;120.07;;;2.60;;
8411;SDS011;4243;49.296;11.348;2022-10-31T16:41:30;120.57;;;2.60;;
8411;SDS011;4243;49.296;11.348;2022-10-31T16:44:06;120.47;;;2.53;;
8411;SDS011;4243;49.296;11.348;2022-10-31T16:47:06;120.23;;;2.60;;
8411;SDS011;4243;49.296;11.348;2022-10-31T16:49:39;120.40;;;2.70;;
8411;SDS011;4243;49.296;11.348;2022-10-31T16:52:08;120.10;;;2.70;;
8411;SDS011;4243;49.296;11.348;2022-10-31T16:54:35;120.30;;;2.60;;
8411;SDS011;4243;49.296;11.348;2022-10-31T16:57:03;120.30;;;2.60;;
8411;SDS011;4243;49.296;11.348;2022-10-31T16:59:32;119.87;;;2.60;;
8411;SDS011;4243;49.296;11.348;2022-10-31T17:02:00;120.13;;;2.67;;
8411;SDS011;4243;49.296;11.348;2022-10-31T17:04:30;120.13;;;2.60;;
8411;SDS011;4243;49.296;11.348;2022-10-31T17:06:57;120.67;;;2.60;;
8411;SDS011;4243;49.296;11.348;2022-10-31T17:09:24;120.60;;;2.60;;
8411;SDS011;4243;49.296;11.348;2022-10-31T17:11:51;119.87;;;2.53;;
8411;SDS011;4243;49.296;11.348;2022-10-31T17:14:20;120.23;;;2.70;;
8411;SDS011;4243;49.296;11.348;2022-10-31T17:16:47;120.30;;;2.80;;
8411;SDS011;4243;49.296;11.348;2022-10-31T17:19:15;119.87;;;2.67;;
8411;SDS011;4243;49.296;11.348;2022-10-31T17:21:42;120.50;;;2.50;;
8411;SDS011;4243;49.296;11.348;2022-10-31T17:24:11;120.10;;;2.57;;
8411;SDS011;4243;49.296;11.348;2022-10-31T17:26:40;120.60;;;2.57;;
8411;SDS011;4243;49.296;11.348;2022-10-31T17:29:08;120.33;;;2.60;;
8411;SDS011;4243;49.296;11.348;2022-10-31T17:31:35;120.47;;;2.77;;
8411;SDS011;4243;49.296;11.348;2022-10-31T17:34:04;120.67;;;2.80;;
8411;SDS011;4243;49.296;11.348;2022-10-31T17:36:35;120.90;;;2.80;;